This is the latest recevied weather packets stored in our database for station/object ON8GE-13. If no packets are shown the sender has not sent any weather packets the latest 10 day(s).
| Time | Temp. | Humidity | Pressure | Rain* | Wind** | Luminosity | Snow |
|---|---|---|---|---|---|---|---|
| 1777473058 | 20° C | 35% | 1022.5 hPa | 0 mm | - | 562 W/m² | - |
| 1777471857 | 20° C | 37% | 1022.5 hPa | 0 mm | - | 598 W/m² | - |
| 1777465860 | 18.89° C | 42% | 1023 hPa | 0 mm | - | 720 W/m² | - |
| 1777464057 | 18.89° C | 43% | 1023.1 hPa | 0 mm | - | 734 W/m² | - |
| 1777453259 | 14.44° C | 48% | 1023.5 hPa | 0 mm | - | 592 W/m² | - |
| 1777440654 | 6.67° C | 62% | 1023.6 hPa | 0 mm | - | 22 W/m² | - |
| 1777439456 | 6.67° C | 62% | 1023.3 hPa | 0 mm | - | 16 W/m² | - |
| 1777438256 | 6.67° C | 62% | 1023.4 hPa | 0 mm | - | 10 W/m² | - |
| 1777436456 | 7.22° C | 60% | 1023.2 hPa | 0 mm | - | 0 W/m² | - |
| 1777434654 | 7.22° C | 60% | 1023 hPa | 0 mm | - | 0 W/m² | - |
| 1777434057 | 7.22° C | 60% | 1023 hPa | 0 mm | - | 0 W/m² | - |
| 1777432257 | 7.78° C | 61% | 1022.9 hPa | 0 mm | - | 0 W/m² | - |
| 1777423256 | 9.44° C | 63% | 1022.3 hPa | 0 mm | - | 0 W/m² | - |
| 1777419664 | 10° C | 61% | 1022.3 hPa | 0 mm | - | 0 W/m² | - |
| 1777419060 | 10° C | 60% | 1022.3 hPa | 0 mm | - | 0 W/m² | - |
| 1777417262 | 10.56° C | 58% | 1022.1 hPa | 0 mm | - | 0 W/m² | - |
| 1777416661 | 10.56° C | 57% | 1022 hPa | 0 mm | - | 0 W/m² | - |
| 1777415459 | 10.56° C | 56% | 1021.8 hPa | 0 mm | - | 0 W/m² | - |
| 1777414862 | 11.11° C | 55% | 1021.8 hPa | 0 mm | - | 0 W/m² | - |
| 1777411266 | 12.22° C | 51% | 1021.5 hPa | 0 mm | - | 0 W/m² | - |
| 1777407073 | 13.89° C | 48% | 1021.1 hPa | 0 mm | - | 0 W/m² | - |
| 1777406467 | 13.89° C | 48% | 1020.9 hPa | 0 mm | - | 0 W/m² | - |
| 1777404664 | 14.44° C | 48% | 1020.4 hPa | 0 mm | - | 0 W/m² | - |
| 1777403462 | 15° C | 48% | 1020 hPa | 0 mm | - | 0 W/m² | - |
| 1777402859 | 15° C | 47% | 1019.9 hPa | 0 mm | - | 2 W/m² | - |
* Rain latest hour (hover to see other rain measurements)
** Current wind speed in m/s (hover to see current wind gust speed)